Time;durP1;ratioP1;P1;durP2;ratioP2;P2;SDS_P1;SDS_P2;PMS_P1;PMS_P2;Temp;Humidity;BMP_temperature;BMP_pressure;BME280_temperature;BME280_humidity;BME280_pressure;Samples;Min_cycle;Max_cycle;Signal;HPM_P1;HPM_P2
2021/04/19 00:00:40;;;;;;;26.67;16.60;;;;;;;-146.18;100.00;67994.34;9991037;29;20052;-70
2021/04/19 00:05:36;;;;;;;28.58;16.95;;;;;;;-146.18;100.00;67994.34;9990347;29;20048;-70
2021/04/19 00:10:33;;;;;;;30.60;18.40;;;;;;;-146.18;100.00;67994.34;9997045;29;20076;-68
2021/04/19 00:15:31;;;;;;;35.83;18.67;;;;;;;-146.18;100.00;67994.34;10001110;29;20470;-70
2021/04/19 00:20:27;;;;;;;25.30;18.10;;;;;;;-146.18;100.00;67994.34;10009698;29;20888;-69
2021/04/19 00:25:23;;;;;;;27.83;17.05;;;;;;;-146.18;100.00;67994.34;10002531;29;20052;-70
2021/04/19 00:30:21;;;;;;;32.55;17.20;;;;;;;-146.18;100.00;67994.34;9991022;29;20056;-70
2021/04/19 00:35:17;;;;;;;30.20;18.13;;;;;;;-146.18;100.00;67994.34;9992781;29;20487;-70
2021/04/19 00:40:16;;;;;;;29.35;19.13;;;;;;;-146.18;100.00;67994.34;9990386;29;20139;-69
2021/04/19 00:45:13;;;;;;;33.00;18.73;;;;;;;-146.18;100.00;67994.34;10008676;29;20056;-70
2021/04/19 00:50:12;;;;;;;29.98;18.63;;;;;;;-146.18;100.00;67994.34;9979396;29;20103;-70
2021/04/19 00:55:11;;;;;;;30.10;20.02;;;;;;;-146.18;100.00;67994.34;9992341;29;20701;-69
2021/04/19 01:00:11;;;;;;;34.67;21.02;;;;;;;-146.18;100.00;67994.34;9994821;29;21922;-71
2021/04/19 01:05:31;;;;;;;32.42;20.55;;;;;;;-146.18;100.00;67994.34;10941707;23;20349;-72
2021/04/19 01:10:27;;;;;;;33.58;19.73;;;;;;;-146.18;100.00;67994.34;9975000;29;20501;-71
2021/04/19 01:15:23;;;;;;;30.88;19.83;;;;;;;-146.18;100.00;67994.34;9984915;29;20474;-71
2021/04/19 01:20:22;;;;;;;42.28;23.55;;;;;;;-146.18;100.00;67994.34;9977637;29;20063;-70
2021/04/19 01:25:25;;;;;;;36.35;21.55;;;;;;;-146.18;100.00;67994.34;9986287;29;20052;-67
2021/04/19 01:30:24;;;;;;;33.42;20.08;;;;;;;-146.18;100.00;67994.34;9984911;29;20055;-71
2021/04/19 01:35:20;;;;;;;37.05;21.75;;;;;;;-146.18;100.00;67994.34;9988746;29;20536;-70
2021/04/19 01:40:17;;;;;;;35.78;22.50;;;;;;;-146.18;100.00;67994.34;9990345;29;20056;-69
2021/04/19 01:45:15;;;;;;;34.20;21.17;;;;;;;-146.18;100.00;67994.34;9988613;29;20052;-69
2021/04/19 01:50:14;;;;;;;39.75;21.98;;;;;;;-146.18;100.00;67994.34;9989063;29;20139;-68
2021/04/19 01:55:13;;;;;;;39.10;24.13;;;;;;;-146.18;100.00;67994.34;9987198;29;20048;-70
2021/04/19 02:00:10;;;;;;;36.45;22.02;;;;;;;-146.18;100.00;67994.34;9989089;29;20147;-70
2021/04/19 02:05:40;;;;;;;43.40;25.23;;;;;;;-146.18;100.00;67994.34;9987543;29;20052;-68
2021/04/19 02:11:16;;;;;;;39.88;22.27;;;;;;;-146.18;100.00;67994.34;9990393;29;20111;-68
2021/04/19 02:16:20;;;;;;;47.20;25.75;;;;;;;-146.18;100.00;67994.34;9991521;29;20802;-69
2021/04/19 02:21:22;;;;;;;42.50;25.42;;;;;;;-146.18;100.00;67994.34;9999172;29;20506;-69
2021/04/19 02:26:28;;;;;;;45.63;27.25;;;;;;;-146.18;100.00;67994.34;9994848;29;20690;-69
2021/04/19 02:31:28;;;;;;;47.28;25.05;;;;;;;-146.18;100.00;67994.34;9983919;29;20058;-70
2021/04/19 02:36:28;;;;;;;42.20;26.02;;;;;;;-146.18;100.00;67994.34;9992568;29;20072;-69
2021/04/19 02:41:27;;;;;;;41.40;23.77;;;;;;;-146.18;100.00;67994.34;9998538;29;20795;-68
2021/04/19 02:46:27;;;;;;;39.90;24.77;;;;;;;-146.18;100.00;67994.34;9990567;29;20048;-70
2021/04/19 02:51:24;;;;;;;43.65;26.58;;;;;;;-146.18;100.00;67994.34;9993444;29;20145;-68
2021/04/19 02:56:20;;;;;;;38.88;22.88;;;;;;;-146.18;100.00;67994.34;9989034;29;20048;-69
2021/04/19 03:01:22;;;;;;;40.50;24.60;;;;;;;-146.18;100.00;67994.34;9988496;29;20060;-69
2021/04/19 03:06:20;;;;;;;42.10;24.90;;;;;;;-146.18;100.00;67994.34;9993631;29;20056;-70
2021/04/19 03:11:40;;;;;;;43.70;24.65;;;;;;;-146.18;100.00;67994.34;9992939;29;20128;-69
2021/04/19 03:16:41;;;;;;;44.95;27.05;;;;;;;-146.18;100.00;67994.34;9991608;29;20056;-69
2021/04/19 03:21:40;;;;;;;52.45;26.15;;;;;;;-146.18;100.00;67994.34;9996487;29;20096;-69
2021/04/19 03:26:38;;;;;;;38.30;22.98;;;;;;;-146.18;100.00;67994.34;9978955;29;20082;-68
2021/04/19 03:31:50;;;;;;;42.45;25.98;;;;;;;-146.18;100.00;67994.34;9988939;29;20481;-69
2021/04/19 03:36:54;;;;;;;52.30;27.33;;;;;;;-146.18;100.00;67994.34;9989744;29;20502;-68
2021/04/19 03:41:53;;;;;;;39.13;24.02;;;;;;;-146.18;100.00;67994.34;9993706;29;20055;-69
2021/04/19 03:46:50;;;;;;;38.47;24.45;;;;;;;-146.18;100.00;67994.34;9983350;29;20048;-69
2021/04/19 03:51:47;;;;;;;34.05;23.13;;;;;;;-146.18;100.00;67994.34;9985305;29;20046;-69
2021/04/19 03:56:45;;;;;;;39.05;23.98;;;;;;;-146.18;100.00;67994.34;9994650;29;20072;-69
2021/04/19 04:01:43;;;;;;;44.95;25.52;;;;;;;-146.18;100.00;67994.34;9996370;29;20060;-70
2021/04/19 04:06:43;;;;;;;41.15;25.27;;;;;;;-146.18;100.00;67994.34;9988846;29;20048;-69
2021/04/19 04:11:39;;;;;;;45.35;28.98;;;;;;;-146.18;100.00;67994.34;9991942;29;20051;-69
2021/04/19 04:16:40;;;;;;;57.53;30.67;;;;;;;-146.18;100.00;67994.34;9972461;29;20048;-69
2021/04/19 04:21:37;;;;;;;55.97;29.38;;;;;;;-146.18;100.00;67994.34;9990721;29;20056;-68
2021/04/19 04:26:33;;;;;;;47.85;30.02;;;;;;;-146.18;100.00;67994.34;9989592;29;20056;-69
2021/04/19 04:31:29;;;;;;;40.42;25.85;;;;;;;-146.18;100.00;67994.34;9988137;29;20075;-69
2021/04/19 04:36:25;;;;;;;42.70;25.15;;;;;;;-146.18;100.00;67994.34;9983447;29;20430;-70
2021/04/19 04:41:21;;;;;;;43.55;26.70;;;;;;;-146.18;100.00;67994.34;9987146;29;20056;-69
2021/04/19 04:46:23;;;;;;;40.97;27.45;;;;;;;-146.18;100.00;67994.34;9985139;29;20075;-70
2021/04/19 04:51:21;;;;;;;38.53;25.55;;;;;;;-146.18;100.00;67994.34;9991948;29;20508;-70
2021/04/19 04:56:19;;;;;;;37.75;23.88;;;;;;;-146.18;100.00;67994.34;9988327;29;20080;-68
2021/04/19 05:01:17;;;;;;;41.30;26.83;;;;;;;-146.18;100.00;67994.34;9985890;29;20052;-69
2021/04/19 05:06:14;;;;;;;53.72;30.75;;;;;;;-146.18;100.00;67994.34;9988172;29;20497;-70
2021/04/19 05:11:11;;;;;;;46.00;28.35;;;;;;;-146.18;100.00;67994.34;9974084;29;20056;-70
2021/04/19 05:16:07;;;;;;;46.67;30.30;;;;;;;-146.18;100.00;67994.34;9979601;29;20075;-69
2021/04/19 05:21:03;;;;;;;51.13;31.83;;;;;;;-146.18;100.00;67994.34;9968886;29;20076;-69
2021/04/19 05:26:02;;;;;;;47.55;29.70;;;;;;;-146.18;100.00;67994.34;9971999;29;20064;-70
2021/04/19 05:30:58;;;;;;;49.38;30.55;;;;;;;-146.18;100.00;67994.34;9973353;29;20556;-70
2021/04/19 05:35:56;;;;;;;42.70;28.00;;;;;;;-146.18;100.00;67994.34;9968602;29;20546;-70
2021/04/19 05:40:53;;;;;;;40.70;23.90;;;;;;;-146.18;100.00;67994.34;9969516;29;20467;-69
2021/04/19 05:45:52;;;;;;;38.35;23.48;;;;;;;-146.18;100.00;67994.34;9973001;29;20529;-70
2021/04/19 05:50:52;;;;;;;36.97;24.65;;;;;;;-146.18;100.00;67994.34;9988896;29;20692;-69
2021/04/19 05:55:52;;;;;;;35.10;24.27;;;;;;;-146.18;100.00;67994.34;9977450;29;20088;-69
2021/04/19 06:01:10;;;;;;;34.97;24.75;;;;;;;-146.18;100.00;67994.34;9987921;29;20052;-70
2021/04/19 06:06:15;;;;;;;32.45;22.50;;;;;;;-146.18;100.00;67994.34;9982138;29;20048;-66
2021/04/19 06:11:26;;;;;;;32.35;22.27;;;;;;;-146.18;100.00;67994.34;9993289;29;20131;-68
2021/04/19 06:16:24;;;;;;;28.52;20.30;;;;;;;-146.18;100.00;67994.34;9983210;29;20063;-67
2021/04/19 06:21:20;;;;;;;29.55;21.23;;;;;;;-146.18;100.00;67994.34;9985854;29;20048;-71
2021/04/19 06:26:16;;;;;;;26.92;19.30;;;;;;;-146.18;100.00;67994.34;9992322;29;20128;-67
2021/04/19 06:31:16;;;;;;;26.98;19.63;;;;;;;-146.18;100.00;67994.34;9987832;29;20052;-67
2021/04/19 06:36:13;;;;;;;27.17;18.85;;;;;;;-146.18;100.00;67994.34;9987542;29;20083;-67
2021/04/19 06:41:09;;;;;;;23.83;16.88;;;;;;;-146.18;100.00;67994.34;9982458;29;20687;-68
2021/04/19 06:46:05;;;;;;;24.65;16.27;;;;;;;-146.18;100.00;67994.34;9976263;29;20067;-71
2021/04/19 06:51:02;;;;;;;29.70;19.38;;;;;;;-146.18;100.00;67994.34;9953074;29;20055;-69
2021/04/19 06:55:58;;;;;;;24.85;17.40;;;;;;;-146.18;100.00;67994.34;9973977;29;20151;-66
2021/04/19 07:00:55;;;;;;;20.85;14.63;;;;;;;-146.18;100.00;67994.34;9976984;29;20083;-71
2021/04/19 07:05:52;;;;;;;24.08;18.05;;;;;;;-146.18;100.00;67994.34;9986722;29;20072;-66
2021/04/19 07:10:54;;;;;;;24.30;15.70;;;;;;;-146.18;100.00;67994.34;9994265;29;20067;-66
2021/04/19 07:15:50;;;;;;;26.92;18.02;;;;;;;-146.18;100.00;67994.34;9992231;29;20123;-69
2021/04/19 07:20:46;;;;;;;26.38;17.88;;;;;;;-146.18;100.00;67994.34;9986284;29;20051;-67
2021/04/19 07:25:44;;;;;;;25.85;18.17;;;;;;;-146.18;100.00;67994.34;9974222;29;20470;-65
2021/04/19 07:30:42;;;;;;;25.30;17.17;;;;;;;-146.18;100.00;67994.34;9984572;29;20059;-69
2021/04/19 07:35:37;;;;;;;26.25;17.17;;;;;;;-146.18;100.00;67994.34;9979187;29;20103;-65
2021/04/19 07:40:43;;;;;;;30.25;19.98;;;;;;;-146.18;100.00;67994.34;9976662;29;20059;-67
2021/04/19 07:45:41;;;;;;;32.10;20.80;;;;;;;-146.18;100.00;67994.34;9978674;29;20072;-67
2021/04/19 07:50:37;;;;;;;28.33;18.25;;;;;;;-146.18;100.00;67994.34;9983911;29;20067;-68
2021/04/19 07:55:34;;;;;;;25.52;18.02;;;;;;;-146.18;100.00;67994.34;9985840;29;20044;-67
2021/04/19 08:00:38;;;;;;;29.15;20.02;;;;;;;-146.18;100.00;67994.34;9978049;29;20048;-67
2021/04/19 08:05:55;;;;;;;26.55;17.75;;;;;;;-146.18;100.00;67994.34;9986846;29;20536;-70
2021/04/19 08:11:05;;;;;;;25.63;18.15;;;;;;;-146.18;100.00;67994.34;9984017;29;20048;-66
2021/04/19 08:16:26;;;;;;;28.90;19.85;;;;;;;-146.18;100.00;67994.34;9981231;29;20513;-66
2021/04/19 08:21:27;;;;;;;32.53;21.92;;;;;;;-146.18;100.00;67994.34;9988246;29;20048;-67
2021/04/19 08:26:23;;;;;;;33.10;22.58;;;;;;;-146.18;100.00;67994.34;9983928;29;20060;-67
2021/04/19 08:31:19;;;;;;;29.65;19.80;;;;;;;-146.18;100.00;67994.34;9989157;29;20067;-68
2021/04/19 08:36:16;;;;;;;27.67;17.95;;;;;;;-146.18;100.00;67994.34;9986599;29;20054;-67
2021/04/19 08:41:14;;;;;;;29.67;19.95;;;;;;;-146.18;100.00;67994.34;9981454;29;20150;-67
2021/04/19 08:46:14;;;;;;;27.10;18.80;;;;;;;-146.18;100.00;67994.34;9979907;29;20498;-69
2021/04/19 08:51:10;;;;;;;25.88;18.73;;;;;;;-146.18;100.00;67994.34;9979717;29;20119;-67
2021/04/19 08:56:06;;;;;;;28.88;16.83;;;;;;;-146.18;100.00;67994.34;9973872;29;20442;-62
2021/04/19 09:01:03;;;;;;;26.58;17.58;;;;;;;-146.18;100.00;67994.34;9976639;29;20521;-63
2021/04/19 09:06:13;;;;;;;26.23;17.30;;;;;;;-146.18;100.00;67994.34;9976232;29;20120;-64
2021/04/19 09:11:11;;;;;;;23.42;17.33;;;;;;;-146.18;100.00;67994.34;9968025;29;20120;-64
2021/04/19 09:16:19;;;;;;;26.30;16.45;;;;;;;-146.18;100.00;67994.34;9963272;29;20068;-67
2021/04/19 09:21:36;;;;;;;22.33;16.15;;;;;;;-146.18;100.00;67994.34;9979285;29;20060;-67
2021/04/19 09:26:56;;;;;;;24.70;16.73;;;;;;;-146.18;100.00;67994.34;9975495;29;20056;-65
2021/04/19 09:31:55;;;;;;;23.20;16.63;;;;;;;-146.18;100.00;67994.34;9974230;29;20545;-66
2021/04/19 09:36:52;;;;;;;26.55;17.45;;;;;;;-146.18;100.00;67994.34;9981878;29;20051;-64
2021/04/19 09:41:48;;;;;;;24.83;17.13;;;;;;;-146.18;100.00;67994.34;9989160;29;20104;-66
2021/04/19 09:46:51;;;;;;;23.85;17.58;;;;;;;-146.18;100.00;67994.34;9994411;29;20543;-65
2021/04/19 09:51:48;;;;;;;22.50;16.65;;;;;;;-146.18;100.00;67994.34;9992912;29;20052;-65
2021/04/19 09:56:55;;;;;;;22.95;16.63;;;;;;;-146.18;100.00;67994.34;9993918;29;20486;-65
2021/04/19 10:01:53;;;;;;;23.25;16.52;;;;;;;-146.18;100.00;67994.34;9989414;29;20047;-65
2021/04/19 10:06:53;;;;;;;25.63;17.95;;;;;;;-146.18;100.00;67994.34;9986179;29;20091;-66
2021/04/19 10:11:58;;;;;;;24.15;16.85;;;;;;;-146.18;100.00;67994.34;9985104;29;20044;-67
2021/04/19 10:16:54;;;;;;;21.70;15.60;;;;;;;-146.18;100.00;67994.34;9991200;29;20107;-66
2021/04/19 10:22:03;;;;;;;19.80;14.80;;;;;;;-146.18;100.00;67994.34;9993784;29;20055;-66
2021/04/19 10:27:00;;;;;;;19.77;15.02;;;;;;;-146.18;100.00;67994.34;9993484;29;20048;-66
2021/04/19 10:31:58;;;;;;;21.02;14.88;;;;;;;-146.18;100.00;67994.34;9994104;29;20604;-66
2021/04/19 10:37:01;;;;;;;16.52;13.23;;;;;;;-146.18;100.00;67994.34;9992458;29;20060;-65
2021/04/19 10:41:59;;;;;;;21.25;14.95;;;;;;;-146.18;100.00;67994.34;9992393;29;20099;-68
2021/04/19 10:46:55;;;;;;;19.38;14.60;;;;;;;-146.18;100.00;67994.34;9988095;29;20463;-68
2021/04/19 10:51:58;;;;;;;23.30;14.75;;;;;;;-146.18;100.00;67994.34;9987479;29;20048;-65
2021/04/19 10:56:54;;;;;;;18.52;14.23;;;;;;;-146.18;100.00;67994.34;9988345;29;20048;-65
2021/04/19 11:01:59;;;;;;;19.95;14.60;;;;;;;-146.18;100.00;67994.34;9985343;29;20044;-66
2021/04/19 11:07:29;;;;;;;17.73;12.95;;;;;;;-146.18;100.00;67994.34;9988217;29;20053;-66
2021/04/19 11:12:25;;;;;;;16.50;14.35;;;;;;;-146.18;100.00;67994.34;9985046;29;20067;-67
2021/04/19 11:17:28;;;;;;;14.23;12.68;;;;;;;-146.18;100.00;67994.34;9989605;29;20109;-67
2021/04/19 11:22:29;;;;;;;14.48;11.40;;;;;;;-146.18;100.00;67994.34;9986259;29;20150;-67
2021/04/19 11:27:42;;;;;;;14.80;11.98;;;;;;;-146.18;100.00;67994.34;9984931;29;20159;-67
2021/04/19 11:32:38;;;;;;;13.27;9.70;;;;;;;-146.18;100.00;67994.34;9990874;29;20064;-67
2021/04/19 11:37:38;;;;;;;13.82;10.15;;;;;;;-146.18;100.00;67994.34;9984541;29;20059;-67
2021/04/19 11:42:35;;;;;;;11.60;9.95;;;;;;;-146.18;100.00;67994.34;9989191;29;20048;-66
2021/04/19 11:47:33;;;;;;;10.32;8.40;;;;;;;-146.18;100.00;67994.34;9994144;29;20048;-67
2021/04/19 11:52:30;;;;;;;19.83;9.48;;;;;;;-146.18;100.00;67994.34;9994580;29;20056;-66
2021/04/19 11:57:26;;;;;;;13.57;8.38;;;;;;;-146.18;100.00;67994.34;9990505;29;20052;-66
2021/04/19 12:02:22;;;;;;;8.68;6.47;;;;;;;-146.18;100.00;67994.34;9991061;29;20052;-66
2021/04/19 12:07:18;;;;;;;11.23;5.97;;;;;;;-146.18;100.00;67994.34;9993381;29;20562;-66
2021/04/19 12:12:14;;;;;;;7.22;5.15;;;;;;;-146.18;100.00;67994.34;9999912;29;20135;-66
2021/04/19 12:17:10;;;;;;;7.95;5.03;;;;;;;-146.18;100.00;67994.34;9989475;29;20084;-68
2021/04/19 12:22:07;;;;;;;8.57;5.15;;;;;;;-146.18;100.00;67994.34;9993058;29;20132;-66
2021/04/19 12:27:03;;;;;;;6.35;5.10;;;;;;;-146.18;100.00;67994.34;9994717;29;20502;-67
2021/04/19 12:32:00;;;;;;;7.80;4.78;;;;;;;-146.18;100.00;67994.34;9987663;29;20081;-67
2021/04/19 12:36:56;;;;;;;7.22;4.38;;;;;;;-146.18;100.00;67994.34;9992898;29;20512;-68
2021/04/19 12:41:52;;;;;;;5.78;4.20;;;;;;;-146.18;100.00;67994.34;9991924;29;20055;-66
2021/04/19 12:46:48;;;;;;;6.88;4.05;;;;;;;-146.18;100.00;67994.34;9991749;29;20052;-67
2021/04/19 12:51:44;;;;;;;8.93;5.10;;;;;;;-146.18;100.00;67994.34;9994991;29;20088;-66
2021/04/19 12:56:41;;;;;;;10.50;4.65;;;;;;;-146.18;100.00;67994.34;9993718;29;20096;-66
2021/04/19 13:01:37;;;;;;;8.60;5.10;;;;;;;-146.18;100.00;67994.34;9994887;29;20413;-67
2021/04/19 13:06:37;;;;;;;11.65;5.38;;;;;;;-146.18;100.00;67994.34;9991639;29;20063;-67
2021/04/19 13:11:35;;;;;;;11.82;6.15;;;;;;;-146.18;100.00;67994.34;9994183;29;20615;-67
2021/04/19 13:16:32;;;;;;;8.15;5.45;;;;;;;-146.18;100.00;67994.34;9990572;29;20047;-67
2021/04/19 13:21:28;;;;;;;11.75;7.65;;;;;;;-146.18;100.00;67994.34;9994204;29;20074;-67
2021/04/19 13:26:24;;;;;;;11.80;7.95;;;;;;;-146.18;100.00;67994.34;9990939;29;20064;-67
2021/04/19 13:31:20;;;;;;;11.48;6.95;;;;;;;-146.18;100.00;67994.34;9994295;29;20135;-67
2021/04/19 13:36:17;;;;;;;14.52;7.90;;;;;;;-146.18;100.00;67994.34;9993228;29;20127;-67
2021/04/19 13:41:13;;;;;;;11.25;7.75;;;;;;;-146.18;100.00;67994.34;9993433;29;20111;-67
2021/04/19 13:46:09;;;;;;;14.23;7.05;;;;;;;-146.18;100.00;67994.34;9993639;29;20051;-67
2021/04/19 13:51:05;;;;;;;8.52;6.07;;;;;;;-146.18;100.00;67994.34;9985609;29;20059;-67
2021/04/19 13:56:03;;;;;;;8.35;5.30;;;;;;;-146.18;100.00;67994.34;9990691;29;20056;-67
2021/04/19 14:01:00;;;;;;;9.10;5.03;;;;;;;-146.18;100.00;67994.34;9993702;29;20075;-63
2021/04/19 14:05:57;;;;;;;12.25;4.90;;;;;;;-146.18;100.00;67994.34;9994052;29;20479;-68
2021/04/19 14:10:53;;;;;;;8.55;5.03;;;;;;;-146.18;100.00;67994.34;10002204;29;20403;-67
2021/04/19 14:15:49;;;;;;;13.80;5.43;;;;;;;-146.18;100.00;67994.34;9996728;29;20048;-66
2021/04/19 14:20:45;;;;;;;10.25;4.03;;;;;;;-146.18;100.00;67994.34;10000559;29;20045;-67
2021/04/19 14:25:42;;;;;;;8.50;4.10;;;;;;;-146.18;100.00;67994.34;9999586;29;20395;-67
2021/04/19 14:30:38;;;;;;;9.35;5.07;;;;;;;-146.18;100.00;67994.34;10000064;29;20075;-67
2021/04/19 14:35:34;;;;;;;9.30;4.80;;;;;;;-146.18;100.00;67994.34;10000221;29;20091;-68
2021/04/19 14:40:30;;;;;;;8.25;4.45;;;;;;;-146.18;100.00;67994.34;9999563;29;20056;-66
2021/04/19 14:45:26;;;;;;;8.27;3.78;;;;;;;-146.18;100.00;67994.34;9999688;29;20039;-67
2021/04/19 14:50:22;;;;;;;9.70;4.25;;;;;;;-146.18;100.00;67994.34;9980200;29;20056;-67
2021/04/19 14:55:18;;;;;;;8.68;3.72;;;;;;;-146.18;100.00;67994.34;9999058;29;20036;-66
2021/04/19 15:00:15;;;;;;;6.03;3.35;;;;;;;-146.18;100.00;67994.34;9991624;29;20052;-66
2021/04/19 15:05:11;;;;;;;5.50;2.60;;;;;;;-146.18;100.00;67994.34;9983411;29;20108;-66
2021/04/19 15:10:08;;;;;;;9.27;3.08;;;;;;;-146.18;100.00;67994.34;9980520;29;20498;-66
2021/04/19 15:15:04;;;;;;;9.95;2.85;;;;;;;-146.18;100.00;67994.34;9986918;29;20118;-67
2021/04/19 15:20:02;;;;;;;8.10;2.83;;;;;;;-146.18;100.00;67994.34;9991844;29;20490;-66
2021/04/19 15:24:58;;;;;;;10.30;2.10;;;;;;;-146.18;100.00;67994.34;9990040;29;20561;-67
2021/04/19 15:29:55;;;;;;;5.47;2.10;;;;;;;-146.18;100.00;67994.34;9991898;29;20084;-67
2021/04/19 15:34:52;;;;;;;6.00;2.13;;;;;;;-146.18;100.00;67994.34;9992047;29;20076;-66
2021/04/19 15:39:48;;;;;;;8.93;2.85;;;;;;;-146.18;100.00;67994.34;9990495;29;20044;-67
2021/04/19 15:44:45;;;;;;;5.35;2.10;;;;;;;-146.18;100.00;67994.34;9984140;29;20044;-67
2021/04/19 15:49:43;;;;;;;5.88;1.77;;;;;;;-146.18;100.00;67994.34;9988279;29;20075;-68
2021/04/19 15:54:41;;;;;;;6.45;2.67;;;;;;;-146.18;100.00;67994.34;9988631;29;20088;-67
2021/04/19 15:59:37;;;;;;;7.43;2.15;;;;;;;-146.18;100.00;67994.34;9986596;29;20052;-67
2021/04/19 16:04:33;;;;;;;7.03;1.67;;;;;;;-146.18;100.00;67994.34;9991918;29;20080;-67
2021/04/19 16:09:30;;;;;;;5.53;2.13;;;;;;;-146.18;100.00;67994.34;9988974;29;20056;-67
2021/04/19 16:14:26;;;;;;;7.13;2.90;;;;;;;-146.18;100.00;67994.34;9991930;29;20044;-67
2021/04/19 16:19:22;;;;;;;5.93;2.22;;;;;;;-146.18;100.00;67994.34;9991782;29;20430;-67
2021/04/19 16:24:19;;;;;;;13.20;2.45;;;;;;;-146.18;100.00;67994.34;9988486;29;20079;-67
2021/04/19 16:29:15;;;;;;;10.40;3.13;;;;;;;-146.18;100.00;67994.34;9988588;29;20044;-65
2021/04/19 16:34:11;;;;;;;7.72;2.80;;;;;;;-146.18;100.00;67994.34;9991632;29;20410;-66
2021/04/19 16:39:11;;;;;;;5.45;2.42;;;;;;;-146.18;100.00;67994.34;9988076;29;20135;-66
2021/04/19 16:44:07;;;;;;;6.32;2.65;;;;;;;-146.18;100.00;67994.34;9989367;29;20087;-66
2021/04/19 16:49:04;;;;;;;9.43;3.60;;;;;;;-146.18;100.00;67994.34;9987140;29;20064;-66
2021/04/19 16:54:01;;;;;;;10.25;3.60;;;;;;;-146.18;100.00;67994.34;9989488;29;20110;-66
2021/04/19 16:58:57;;;;;;;7.22;3.33;;;;;;;-146.18;100.00;67994.34;9982558;29;20515;-66
2021/04/19 17:03:54;;;;;;;9.00;3.33;;;;;;;-146.18;100.00;67994.34;9986278;29;20455;-66
2021/04/19 17:08:50;;;;;;;6.72;3.42;;;;;;;-146.18;100.00;67994.34;9985747;29;20051;-66
2021/04/19 17:13:46;;;;;;;11.43;4.15;;;;;;;-146.18;100.00;67994.34;9970620;29;20059;-66
2021/04/19 17:18:42;;;;;;;8.23;3.50;;;;;;;-146.18;100.00;67994.34;9989643;29;20054;-66
2021/04/19 17:23:40;;;;;;;7.20;3.42;;;;;;;-146.18;100.00;67994.34;9991085;29;20044;-67
2021/04/19 17:28:37;;;;;;;9.70;3.17;;;;;;;-146.18;100.00;67994.34;9988599;29;20044;-67
2021/04/19 17:33:34;;;;;;;7.45;2.60;;;;;;;-146.18;100.00;67994.34;9986127;29;20079;-66
2021/04/19 17:38:31;;;;;;;7.38;2.55;;;;;;;-146.18;100.00;67994.34;9986568;29;20052;-66
2021/04/19 17:43:27;;;;;;;8.85;2.63;;;;;;;-146.18;100.00;67994.34;9997490;29;20059;-65
2021/04/19 17:48:23;;;;;;;7.70;2.80;;;;;;;-146.18;100.00;67994.34;9991868;29;20507;-66
2021/04/19 17:53:19;;;;;;;8.55;2.80;;;;;;;-146.18;100.00;67994.34;9993610;29;20052;-66
2021/04/19 17:58:15;;;;;;;7.25;2.17;;;;;;;-146.18;100.00;67994.34;9997873;29;20052;-66
2021/04/19 18:03:14;;;;;;;6.05;2.20;;;;;;;-146.18;100.00;67994.34;9997125;29;20075;-66
2021/04/19 18:08:10;;;;;;;9.32;2.28;;;;;;;-146.18;100.00;67994.34;9989846;29;20107;-66
2021/04/19 18:13:06;;;;;;;7.15;1.85;;;;;;;-146.18;100.00;67994.34;9996892;29;20057;-65
2021/04/19 18:18:04;;;;;;;8.82;2.33;;;;;;;-146.18;100.00;67994.34;9997239;29;20048;-65
2021/04/19 18:23:00;;;;;;;12.32;2.22;;;;;;;-146.18;100.00;67994.34;9991352;29;20091;-65
2021/04/19 18:27:56;;;;;;;6.55;2.33;;;;;;;-146.18;100.00;67994.34;9993225;29;20048;-66
2021/04/19 18:32:52;;;;;;;6.93;2.00;;;;;;;-146.18;100.00;67994.34;9987751;29;20127;-66
2021/04/19 18:37:49;;;;;;;6.88;2.60;;;;;;;-146.18;100.00;67994.34;9992299;29;20528;-66
2021/04/19 18:42:45;;;;;;;8.30;2.53;;;;;;;-146.18;100.00;67994.34;9993948;29;20052;-66
2021/04/19 18:47:42;;;;;;;7.55;2.28;;;;;;;-146.18;100.00;67994.34;9990041;29;20717;-65
2021/04/19 18:52:38;;;;;;;5.53;2.17;;;;;;;-146.18;100.00;67994.34;9988122;29;20059;-66
2021/04/19 18:57:34;;;;;;;10.13;2.70;;;;;;;-146.18;100.00;67994.34;9984946;29;20047;-66
2021/04/19 19:02:33;;;;;;;7.13;2.70;;;;;;;-146.18;100.00;67994.34;9986904;29;20135;-67
2021/04/19 19:07:29;;;;;;;10.05;2.72;;;;;;;-146.18;100.00;67994.34;9986500;29;20119;-67
2021/04/19 19:12:26;;;;;;;6.38;2.72;;;;;;;-146.18;100.00;67994.34;9994216;29;20059;-66
2021/04/19 19:17:23;;;;;;;8.02;2.20;;;;;;;-146.18;100.00;67994.34;9991186;29;20063;-67
2021/04/19 19:22:19;;;;;;;5.32;2.53;;;;;;;-146.18;100.00;67994.34;9991627;29;20082;-68
2021/04/19 19:27:16;;;;;;;10.50;2.65;;;;;;;-146.18;100.00;67994.34;9988789;29;20514;-67
2021/04/19 19:32:11;;;;;;;10.55;3.28;;;;;;;-146.18;100.00;67994.34;9992378;29;20071;-67
2021/04/19 19:37:08;;;;;;;6.30;2.53;;;;;;;-146.18;100.00;67994.34;9989531;29;20122;-67
2021/04/19 19:42:04;;;;;;;10.77;2.70;;;;;;;-146.18;100.00;67994.34;9991541;29;20052;-67
2021/04/19 19:47:00;;;;;;;9.43;2.97;;;;;;;-146.18;100.00;67994.34;9983920;29;20059;-67
2021/04/19 19:51:56;;;;;;;8.20;2.22;;;;;;;-146.18;100.00;67994.34;9991716;29;20052;-67
2021/04/19 19:56:53;;;;;;;6.75;2.70;;;;;;;-146.18;100.00;67994.34;9987200;29;20388;-66
2021/04/19 20:01:49;;;;;;;5.72;2.38;;;;;;;-146.18;100.00;67994.34;9990099;29;20096;-66
2021/04/19 20:06:45;;;;;;;11.50;3.33;;;;;;;-146.18;100.00;67994.34;9992247;29;20059;-67
2021/04/19 20:11:42;;;;;;;7.72;3.10;;;;;;;-146.18;100.00;67994.34;9988145;29;20040;-66
2021/04/19 20:16:38;;;;;;;7.88;3.08;;;;;;;-146.18;100.00;67994.34;9986074;29;20128;-66
2021/04/19 20:21:34;;;;;;;9.43;3.25;;;;;;;-146.18;100.00;67994.34;9992051;29;20091;-66
2021/04/19 20:26:30;;;;;;;9.30;3.10;;;;;;;-146.18;100.00;67994.34;9987837;29;20052;-67
2021/04/19 20:31:27;;;;;;;6.65;3.08;;;;;;;-146.18;100.00;67994.34;9991745;29;20052;-67
2021/04/19 20:36:23;;;;;;;7.47;4.05;;;;;;;-146.18;100.00;67994.34;9988299;29;20570;-67
2021/04/19 20:41:19;;;;;;;7.75;3.50;;;;;;;-146.18;100.00;67994.34;9984482;29;20044;-67
2021/04/19 20:46:17;;;;;;;8.10;3.83;;;;;;;-146.18;100.00;67994.34;9990565;29;20068;-66
2021/04/19 20:51:13;;;;;;;9.55;3.83;;;;;;;-146.18;100.00;67994.34;9988222;29;20051;-67
2021/04/19 20:56:09;;;;;;;8.40;3.92;;;;;;;-146.18;100.00;67994.34;9989097;29;20857;-65
2021/04/19 21:01:05;;;;;;;7.55;3.70;;;;;;;-146.18;100.00;67994.34;9985334;29;20072;-66
2021/04/19 21:06:01;;;;;;;9.52;4.20;;;;;;;-146.18;100.00;67994.34;9985117;29;20421;-67
2021/04/19 21:10:57;;;;;;;9.75;3.92;;;;;;;-146.18;100.00;67994.34;9989065;29;20473;-68
2021/04/19 21:15:53;;;;;;;11.02;4.13;;;;;;;-146.18;100.00;67994.34;9981660;29;20054;-67
2021/04/19 21:20:49;;;;;;;8.75;3.63;;;;;;;-146.18;100.00;67994.34;9978952;29;20103;-67
2021/04/19 21:25:45;;;;;;;11.50;4.43;;;;;;;-146.18;100.00;67994.34;9983166;29;20681;-67
2021/04/19 21:30:42;;;;;;;9.43;4.05;;;;;;;-146.18;100.00;67994.34;9988164;29;20040;-67
2021/04/19 21:35:38;;;;;;;9.07;4.13;;;;;;;-146.18;100.00;67994.34;9986587;29;20502;-67
2021/04/19 21:40:52;;;;;;;12.23;4.55;;;;;;;-146.18;100.00;67994.34;9990741;29;20048;-67
2021/04/19 21:45:49;;;;;;;10.20;4.82;;;;;;;-146.18;100.00;67994.34;9986291;29;20055;-67
2021/04/19 21:50:46;;;;;;;10.45;5.25;;;;;;;-146.18;100.00;67994.34;9980249;29;20135;-67
2021/04/19 21:55:42;;;;;;;10.77;4.80;;;;;;;-146.18;100.00;67994.34;9988011;29;20052;-67
2021/04/19 22:00:40;;;;;;;11.00;4.90;;;;;;;-146.18;100.00;67994.34;9988436;29;20591;-67
2021/04/19 22:05:37;;;;;;;9.50;4.45;;;;;;;-146.18;100.00;67994.34;9978396;29;20048;-67
2021/04/19 22:10:34;;;;;;;9.15;3.97;;;;;;;-146.18;100.00;67994.34;9987341;29;20075;-67
2021/04/19 22:15:31;;;;;;;14.13;4.95;;;;;;;-146.18;100.00;67994.34;9987353;29;20421;-67